createdAt,value
2023-02-24T00:04:06.971Z,991.43
2023-02-24T00:09:11.130Z,991.41
2023-02-24T00:14:15.327Z,991.40
2023-02-24T00:19:19.482Z,991.37
2023-02-24T00:24:23.632Z,991.39
2023-02-24T00:29:27.814Z,991.41
2023-02-24T00:34:31.983Z,991.52
2023-02-24T00:39:36.270Z,991.52
2023-02-24T00:44:40.316Z,991.42
2023-02-24T00:49:44.472Z,991.49
2023-02-24T00:54:48.628Z,991.40
2023-02-24T00:59:52.792Z,991.47
2023-02-24T01:04:56.925Z,991.52
2023-02-24T01:10:01.114Z,991.46
2023-02-24T01:15:05.258Z,991.45
2023-02-24T01:20:07.566Z,991.46
2023-02-24T01:25:11.724Z,991.44
2023-02-24T01:30:13.998Z,991.49
2023-02-24T01:35:18.168Z,991.38
2023-02-24T01:40:20.427Z,991.43
2023-02-24T01:45:24.599Z,991.48
2023-02-24T01:50:28.732Z,991.46
2023-02-24T01:55:32.929Z,991.53
2023-02-24T02:00:37.121Z,991.45
2023-02-24T02:05:41.265Z,991.50
2023-02-24T02:10:43.502Z,991.52
2023-02-24T02:15:47.734Z,991.46
2023-02-24T02:20:51.816Z,991.37
2023-02-24T02:25:56.000Z,991.42
2023-02-24T02:31:00.189Z,991.40
2023-02-24T02:36:04.309Z,991.40
2023-02-24T02:41:08.473Z,991.49
2023-02-24T02:46:12.669Z,991.44
2023-02-24T02:51:16.854Z,991.42
2023-02-24T02:56:21.002Z,991.46
2023-02-24T03:01:25.206Z,991.33
2023-02-24T03:06:29.344Z,991.33
2023-02-24T03:11:33.492Z,991.21
2023-02-24T03:16:37.686Z,991.22
2023-02-24T03:21:42.018Z,991.24
2023-02-24T03:26:44.066Z,991.23
2023-02-24T03:31:48.374Z,991.20
2023-02-24T03:36:50.528Z,991.30
2023-02-24T03:41:54.705Z,991.32
2023-02-24T03:46:58.818Z,991.22
2023-02-24T03:52:03.017Z,991.25
2023-02-24T03:57:07.140Z,991.28
2023-02-24T04:02:11.355Z,991.23
2023-02-24T04:07:15.501Z,991.37
2023-02-24T04:12:19.685Z,991.44
2023-02-24T04:17:23.823Z,991.44
2023-02-24T04:22:27.995Z,991.53
2023-02-24T04:27:32.151Z,991.51
2023-02-24T04:32:36.395Z,991.57
2023-02-24T04:37:40.490Z,991.43
2023-02-24T04:42:44.642Z,991.44
2023-02-24T04:47:48.800Z,991.34
2023-02-24T04:52:52.980Z,991.26
2023-02-24T04:57:57.140Z,991.12
2023-02-24T05:03:01.391Z,991.11
2023-02-24T05:08:05.461Z,991.10
2023-02-24T05:13:09.616Z,991.11
2023-02-24T05:23:17.972Z,991.24
2023-02-24T05:28:20.261Z,991.33
2023-02-24T05:33:24.393Z,991.36
2023-02-24T05:38:26.664Z,991.32
2023-02-24T05:43:30.862Z,991.27
2023-02-24T05:48:35.121Z,991.22
2023-02-24T05:53:39.130Z,991.27
2023-02-24T05:58:43.332Z,991.24
2023-02-24T06:03:47.497Z,991.32
2023-02-24T06:08:51.693Z,991.33
2023-02-24T06:13:55.857Z,991.38
2023-02-24T06:18:59.965Z,991.45
2023-02-24T06:24:04.171Z,991.55
2023-02-24T06:29:08.288Z,991.54
2023-02-24T06:34:12.457Z,991.56
2023-02-24T06:39:16.644Z,991.64
2023-02-24T06:44:20.844Z,991.74
2023-02-24T06:49:24.959Z,991.84
2023-02-24T06:54:29.130Z,991.80
2023-02-24T06:59:33.294Z,991.87
2023-02-24T07:04:37.925Z,991.81
2023-02-24T07:09:41.632Z,991.79
2023-02-24T07:14:45.789Z,991.96
2023-02-24T07:19:49.976Z,991.96
2023-02-24T07:24:52.241Z,992.18
2023-02-24T07:29:56.398Z,992.12
2023-02-24T07:35:00.579Z,992.17
2023-02-24T07:40:04.727Z,992.07
2023-02-24T07:45:08.979Z,992.15
2023-02-24T07:50:13.051Z,992.30
2023-02-24T07:55:17.186Z,992.42
2023-02-24T08:00:21.373Z,992.41
2023-02-24T08:05:25.593Z,992.50
2023-02-24T08:10:29.720Z,992.51
2023-02-24T08:15:34.352Z,992.49
2023-02-24T08:20:37.997Z,992.45
2023-02-24T08:25:42.190Z,992.42
2023-02-24T08:30:46.867Z,992.58
2023-02-24T08:35:50.531Z,992.57
2023-02-24T08:40:55.212Z,992.80
2023-02-24T08:45:59.010Z,992.85
2023-02-24T08:51:03.009Z,993.04
2023-02-24T08:56:07.182Z,993.06
2023-02-24T09:01:11.441Z,993.04
2023-02-24T09:06:15.505Z,992.96
2023-02-24T09:11:17.779Z,993.10
2023-02-24T09:16:22.031Z,992.99
2023-02-24T09:21:24.224Z,993.22
2023-02-24T09:26:28.369Z,993.46
2023-02-24T09:31:30.863Z,993.46
2023-02-24T09:36:34.825Z,993.81
2023-02-24T09:41:39.001Z,993.78
2023-02-24T09:46:43.189Z,993.82
2023-02-24T09:51:47.298Z,993.95
2023-02-24T09:56:51.468Z,993.89
2023-02-24T10:01:55.678Z,993.85
2023-02-24T10:06:59.804Z,993.97
2023-02-24T10:12:04.055Z,994.02
2023-02-24T10:17:08.119Z,994.02
2023-02-24T10:22:12.314Z,993.71
2023-02-24T10:27:17.077Z,993.58
2023-02-24T10:32:20.945Z,993.74
2023-02-24T10:37:28.830Z,993.63
2023-02-24T10:42:28.982Z,993.45
2023-02-24T10:47:33.162Z,993.12
2023-02-24T10:52:37.275Z,992.89
2023-02-24T10:57:53.547Z,992.52
2023-02-24T11:02:45.699Z,992.01
2023-02-24T11:07:49.743Z,991.75
2023-02-24T11:13:00.990Z,991.28
2023-02-24T11:17:56.288Z,990.84
2023-02-24T11:23:00.398Z,990.53
2023-02-24T11:28:02.644Z,990.21
2023-02-24T11:33:06.796Z,989.90
2023-02-24T11:38:10.955Z,989.45
2023-02-24T11:43:15.150Z,989.11
2023-02-24T11:48:19.325Z,988.77
2023-02-24T11:53:23.447Z,988.51
2023-02-24T11:58:27.607Z,988.16
2023-02-24T12:03:31.792Z,987.89
2023-02-24T12:08:35.951Z,987.57
2023-02-24T12:13:40.093Z,987.30
2023-02-24T12:18:44.277Z,987.25
2023-02-24T12:23:48.442Z,986.94
2023-02-24T12:28:52.601Z,986.62
2023-02-24T12:33:56.763Z,986.52
2023-02-24T12:39:00.986Z,986.44
2023-02-24T12:44:05.067Z,986.23
2023-02-24T12:49:09.251Z,986.06
2023-02-24T12:54:13.425Z,985.83
2023-02-24T12:59:17.556Z,985.61
2023-02-24T13:04:21.852Z,985.41
2023-02-24T13:09:25.906Z,985.28
2023-02-24T13:14:28.204Z,985.17
2023-02-24T13:19:32.377Z,985.06
2023-02-24T13:24:36.523Z,984.87
2023-02-24T13:29:38.819Z,984.75
2023-02-24T13:34:42.963Z,984.58
2023-02-24T13:39:47.114Z,984.43
2023-02-24T13:44:51.289Z,984.23
2023-02-24T13:49:55.466Z,984.05
2023-02-24T13:54:59.613Z,983.98
2023-02-24T14:00:03.751Z,983.92
2023-02-24T14:05:07.969Z,983.92
2023-02-24T14:10:13.334Z,983.62
2023-02-24T14:15:16.290Z,983.56
2023-02-24T14:20:20.436Z,983.48
2023-02-24T14:25:24.608Z,983.48
2023-02-24T14:30:28.856Z,983.31
2023-02-24T14:35:32.935Z,983.18
2023-02-24T14:40:37.115Z,983.00
2023-02-24T14:45:41.255Z,982.98
2023-02-24T14:50:45.410Z,982.85
2023-02-24T15:00:53.759Z,982.72
2023-02-24T15:05:57.903Z,982.57
2023-02-24T15:11:02.109Z,982.21
2023-02-24T15:16:06.296Z,982.16
2023-02-24T15:21:08.483Z,981.83
2023-02-24T15:26:12.658Z,981.94
2023-02-24T15:31:15.075Z,981.84
2023-02-24T15:36:19.390Z,981.68
2023-02-24T15:41:23.261Z,981.61
2023-02-24T15:46:27.459Z,981.45
2023-02-24T15:51:31.613Z,981.23
2023-02-24T15:56:35.737Z,981.23
2023-02-24T16:01:39.926Z,981.19
2023-02-24T16:06:44.105Z,980.96
2023-02-24T16:11:48.259Z,980.92
2023-02-24T16:16:52.555Z,980.94
2023-02-24T16:27:00.741Z,980.90
2023-02-24T16:32:05.321Z,980.98
2023-02-24T16:37:09.084Z,981.00
2023-02-24T16:42:13.354Z,980.99
2023-02-24T16:47:17.407Z,980.97
2023-02-24T16:52:21.558Z,981.06
2023-02-24T16:57:25.949Z,980.86
2023-02-24T17:02:29.868Z,980.95
2023-02-24T17:07:34.076Z,980.82
2023-02-24T17:12:38.266Z,980.82
2023-02-24T17:17:42.376Z,980.78
2023-02-24T17:22:44.637Z,980.76
2023-02-24T17:27:48.860Z,980.73
2023-02-24T17:32:51.137Z,980.72
2023-02-24T17:37:55.244Z,980.79
2023-02-24T17:42:59.394Z,980.85
2023-02-24T17:48:03.580Z,980.85
2023-02-24T17:53:07.740Z,980.88
2023-02-24T17:58:11.935Z,980.88
2023-02-24T18:03:16.126Z,981.03
2023-02-24T18:08:20.224Z,981.12
2023-02-24T18:13:24.381Z,981.42
2023-02-24T18:18:28.582Z,981.62
2023-02-24T18:23:32.715Z,981.64
2023-02-24T18:28:36.868Z,981.61
2023-02-24T18:33:41.094Z,981.73
2023-02-24T18:38:45.215Z,981.79
2023-02-24T18:43:49.362Z,981.85
2023-02-24T18:48:53.554Z,981.82
2023-02-24T18:53:57.710Z,981.84
2023-02-24T18:59:01.922Z,981.78
2023-02-24T19:04:06.058Z,982.00
2023-02-24T19:09:08.302Z,982.01
2023-02-24T19:14:12.450Z,981.99
2023-02-24T19:19:14.803Z,981.92
2023-02-24T19:24:18.918Z,981.92
2023-02-24T19:29:23.076Z,982.00
2023-02-24T19:34:27.253Z,982.05
2023-02-24T19:39:31.405Z,982.09
2023-02-24T19:44:35.562Z,982.16
2023-02-24T19:49:39.715Z,982.20
2023-02-24T19:54:43.898Z,982.32
2023-02-24T19:59:48.076Z,982.26
2023-02-24T20:04:52.278Z,982.25
2023-02-24T20:09:56.415Z,982.24
2023-02-24T20:15:00.577Z,982.20
2023-02-24T20:20:04.730Z,982.19
2023-02-24T20:25:08.888Z,982.18
2023-02-24T20:30:13.070Z,982.39
2023-02-24T20:35:17.233Z,982.32
2023-02-24T20:40:21.365Z,982.36
2023-02-24T20:45:25.567Z,982.45
2023-02-24T20:50:29.715Z,982.58
2023-02-24T20:55:33.892Z,982.59
2023-02-24T21:00:37.999Z,982.58
2023-02-24T21:05:40.295Z,982.61
2023-02-24T21:10:44.449Z,982.70
2023-02-24T21:15:46.769Z,982.60
2023-02-24T21:20:50.916Z,982.71
2023-02-24T21:25:53.162Z,982.81
2023-02-24T21:30:57.418Z,982.88
2023-02-24T21:36:01.514Z,983.04
2023-02-24T21:41:05.649Z,983.11
2023-02-24T21:46:09.883Z,983.01
2023-02-24T21:51:14.003Z,983.13
2023-02-24T21:56:18.168Z,983.19
2023-02-24T22:01:22.497Z,983.15
2023-02-24T22:06:28.409Z,983.11
2023-02-24T22:11:30.888Z,983.08
2023-02-24T22:16:34.952Z,983.05
2023-02-24T22:21:38.981Z,983.10
2023-02-24T22:26:43.156Z,983.02
2023-02-24T22:31:49.595Z,983.08
2023-02-24T22:36:51.452Z,983.06
2023-02-24T22:41:55.634Z,983.11
2023-02-24T22:46:59.836Z,983.27
2023-02-24T22:52:03.946Z,983.31
2023-02-24T22:57:08.107Z,983.36
2023-02-24T23:02:12.279Z,983.50
2023-02-24T23:07:16.472Z,983.58
2023-02-24T23:12:18.744Z,983.71
2023-02-24T23:17:22.911Z,983.62
2023-02-24T23:22:25.204Z,983.79
2023-02-24T23:27:51.445Z,983.95
2023-02-24T23:32:33.828Z,984.09
2023-02-24T23:37:37.625Z,984.19
2023-02-24T23:42:41.846Z,984.38
2023-02-24T23:47:46.002Z,984.45
2023-02-24T23:52:50.163Z,984.51
2023-02-24T23:57:54.323Z,984.76
